Time;durP1;ratioP1;P1;durP2;ratioP2;P2;SDS_P1;SDS_P2;PMS_P1;PMS_P2;Temp;Humidity;BMP_temperature;BMP_pressure;BME280_temperature;BME280_humidity;BME280_pressure;Samples;Min_cycle;Max_cycle;Signal;HPM_P1;HPM_P2
2023/08/14 00:00:49;;;;;;;867.00;780.65;;;;;;;;;;4979856;28;20125;-63
2023/08/14 00:03:16;;;;;;;868.38;780.80;;;;;;;;;;4979459;28;20058;-64
2023/08/14 00:05:43;;;;;;;871.00;784.42;;;;;;;;;;4978063;28;20050;-64
2023/08/14 00:08:09;;;;;;;868.20;782.75;;;;;;;;;;4980522;28;20042;-63
2023/08/14 00:10:36;;;;;;;870.50;784.60;;;;;;;;;;4980443;28;20066;-64
2023/08/14 00:13:03;;;;;;;865.38;780.70;;;;;;;;;;4979865;28;20497;-64
2023/08/14 00:15:29;;;;;;;870.97;783.35;;;;;;;;;;4979489;28;20038;-64
2023/08/14 00:17:56;;;;;;;873.17;786.22;;;;;;;;;;4978043;28;20054;-64
2023/08/14 00:20:22;;;;;;;866.20;782.55;;;;;;;;;;4979044;28;20089;-64
2023/08/14 00:22:49;;;;;;;867.92;783.15;;;;;;;;;;4979930;28;20518;-64
2023/08/14 00:25:15;;;;;;;879.13;792.80;;;;;;;;;;4979423;28;20038;-64
2023/08/14 00:27:42;;;;;;;868.90;783.30;;;;;;;;;;4979288;28;20065;-64
2023/08/14 00:30:09;;;;;;;861.50;777.15;;;;;;;;;;4978789;28;20055;-64
2023/08/14 00:32:35;;;;;;;885.72;798.75;;;;;;;;;;4978269;28;20078;-65
2023/08/14 00:35:02;;;;;;;864.55;780.65;;;;;;;;;;4979061;28;20050;-64
2023/08/14 00:37:42;;;;;;;866.38;784.15;;;;;;;;;;4963508;28;20053;-65
2023/08/14 00:40:12;;;;;;;872.03;786.30;;;;;;;;;;4978632;28;20055;-63
2023/08/14 00:42:39;;;;;;;881.22;791.72;;;;;;;;;;4978301;28;20054;-64
2023/08/14 00:45:06;;;;;;;874.65;787.08;;;;;;;;;;4980511;28;20050;-65
2023/08/14 00:47:36;;;;;;;877.80;793.88;;;;;;;;;;4980287;28;20488;-64
2023/08/14 00:50:03;;;;;;;880.30;795.00;;;;;;;;;;4982350;28;20058;-63
2023/08/14 00:52:32;;;;;;;876.28;791.35;;;;;;;;;;4980649;28;20065;-64
2023/08/14 00:55:00;;;;;;;879.05;793.60;;;;;;;;;;4977079;28;20152;-63
2023/08/14 00:57:28;;;;;;;883.22;794.28;;;;;;;;;;4977384;28;20492;-64
2023/08/14 00:59:56;;;;;;;867.80;783.80;;;;;;;;;;4977125;28;20063;-63
2023/08/14 01:02:25;;;;;;;875.30;790.35;;;;;;;;;;4979061;28;20054;-63
2023/08/14 01:04:52;;;;;;;877.58;793.72;;;;;;;;;;4979856;28;20122;-63
2023/08/14 01:07:19;;;;;;;897.33;809.80;;;;;;;;;;4961168;28;20396;-63
2023/08/14 01:09:46;;;;;;;890.20;804.38;;;;;;;;;;4962003;28;20058;-64
2023/08/14 01:12:25;;;;;;;884.53;799.55;;;;;;;;;;4977416;28;20130;-62
2023/08/14 01:14:55;;;;;;;891.72;806.97;;;;;;;;;;4983028;28;20113;-64
2023/08/14 01:17:24;;;;;;;898.80;812.88;;;;;;;;;;4983739;28;20047;-63
2023/08/14 01:19:51;;;;;;;892.45;806.83;;;;;;;;;;4983183;28;20696;-63
2023/08/14 01:22:21;;;;;;;883.13;799.50;;;;;;;;;;4984067;28;20042;-62
2023/08/14 01:24:52;;;;;;;883.28;797.95;;;;;;;;;;4981438;28;20054;-63
2023/08/14 01:27:19;;;;;;;906.47;817.67;;;;;;;;;;4984845;28;20046;-63
2023/08/14 01:29:55;;;;;;;882.92;797.92;;;;;;;;;;4986433;28;20049;-64
2023/08/14 01:32:22;;;;;;;884.15;797.78;;;;;;;;;;4981811;28;20129;-63
2023/08/14 01:34:49;;;;;;;886.15;800.80;;;;;;;;;;4981860;28;20043;-63
2023/08/14 01:37:25;;;;;;;903.30;817.20;;;;;;;;;;4982016;28;20054;-63
2023/08/14 01:39:55;;;;;;;882.72;797.22;;;;;;;;;;4982652;28;20057;-62
2023/08/14 01:42:25;;;;;;;877.92;794.15;;;;;;;;;;4981290;28;20050;-64
2023/08/14 01:44:55;;;;;;;885.75;800.03;;;;;;;;;;4987398;28;20463;-63
2023/08/14 01:47:23;;;;;;;882.33;796.22;;;;;;;;;;4983654;28;20038;-63
2023/08/14 01:49:51;;;;;;;886.15;801.38;;;;;;;;;;4982384;28;20468;-63
2023/08/14 01:52:17;;;;;;;877.85;793.58;;;;;;;;;;4983609;28;20089;-63
2023/08/14 01:54:46;;;;;;;891.33;803.67;;;;;;;;;;4965526;28;20120;-64
2023/08/14 01:57:13;;;;;;;881.20;795.78;;;;;;;;;;4983621;28;20493;-63
2023/08/14 01:59:44;;;;;;;877.83;792.25;;;;;;;;;;4982416;28;20157;-63
2023/08/14 02:02:12;;;;;;;872.60;787.38;;;;;;;;;;5021766;22;20573;-67
2023/08/14 02:04:39;;;;;;;876.42;791.47;;;;;;;;;;5010116;28;20467;-64
2023/08/14 02:07:06;;;;;;;881.88;794.88;;;;;;;;;;5002109;28;20046;-66
2023/08/14 02:09:33;;;;;;;887.20;798.50;;;;;;;;;;5009911;28;20041;-67
2023/08/14 02:11:59;;;;;;;866.88;783.72;;;;;;;;;;5010833;28;20133;-65
2023/08/14 02:14:26;;;;;;;878.95;793.85;;;;;;;;;;4977202;28;20541;-68
2023/08/14 02:16:52;;;;;;;877.47;792.13;;;;;;;;;;5011378;28;20061;-66
2023/08/14 02:19:19;;;;;;;872.63;789.22;;;;;;;;;;5010076;28;20068;-65
2023/08/14 02:21:46;;;;;;;874.28;788.88;;;;;;;;;;5010596;28;20069;-65
2023/08/14 02:24:12;;;;;;;886.33;796.10;;;;;;;;;;5010266;28;20046;-67
2023/08/14 02:26:39;;;;;;;870.08;785.83;;;;;;;;;;5008784;28;20069;-66
2023/08/14 02:29:06;;;;;;;874.03;788.75;;;;;;;;;;5010405;28;20064;-66
2023/08/14 02:31:32;;;;;;;869.22;783.80;;;;;;;;;;5007089;28;20475;-67
2023/08/14 02:33:59;;;;;;;862.53;777.85;;;;;;;;;;5011037;28;20481;-66
2023/08/14 02:36:26;;;;;;;854.53;770.63;;;;;;;;;;5010983;28;20077;-66
2023/08/14 02:38:53;;;;;;;876.40;790.53;;;;;;;;;;5010103;28;20038;-67
2023/08/14 02:41:20;;;;;;;856.72;773.00;;;;;;;;;;5008562;28;20045;-68
2023/08/14 02:43:47;;;;;;;860.28;773.58;;;;;;;;;;4992199;28;20127;-66
2023/08/14 02:46:14;;;;;;;858.15;773.00;;;;;;;;;;5010429;28;20713;-67
2023/08/14 02:48:40;;;;;;;868.20;779.92;;;;;;;;;;5009841;28;20046;-67
2023/08/14 02:51:07;;;;;;;841.13;758.85;;;;;;;;;;5011572;28;20097;-67
2023/08/14 02:53:33;;;;;;;855.42;770.03;;;;;;;;;;5010050;28;20648;-66
2023/08/14 02:56:00;;;;;;;864.05;780.05;;;;;;;;;;5009693;28;20042;-66
2023/08/14 02:58:27;;;;;;;851.33;767.97;;;;;;;;;;5006248;28;20042;-66
2023/08/14 03:00:54;;;;;;;857.72;771.67;;;;;;;;;;5008223;28;20034;-68
2023/08/14 03:03:21;;;;;;;849.03;767.75;;;;;;;;;;5008362;28;20046;-65
2023/08/14 03:05:47;;;;;;;858.72;774.30;;;;;;;;;;5010256;28;20042;-66
2023/08/14 03:08:14;;;;;;;844.88;759.67;;;;;;;;;;5008461;28;20112;-67
2023/08/14 03:10:40;;;;;;;853.13;769.55;;;;;;;;;;5010070;28;20124;-67
2023/08/14 03:13:08;;;;;;;855.47;770.63;;;;;;;;;;5008493;28;20050;-67
2023/08/14 03:15:35;;;;;;;868.45;777.92;;;;;;;;;;5008545;28;20053;-66
2023/08/14 03:18:01;;;;;;;863.78;779.55;;;;;;;;;;5009850;28;20442;-67
2023/08/14 03:20:28;;;;;;;866.13;781.83;;;;;;;;;;5008629;28;20050;-66
2023/08/14 03:22:55;;;;;;;858.38;773.92;;;;;;;;;;5008066;28;20490;-67
2023/08/14 03:25:22;;;;;;;865.10;780.50;;;;;;;;;;5000124;28;20436;-67
2023/08/14 03:27:48;;;;;;;853.45;768.78;;;;;;;;;;5008485;28;20061;-66
2023/08/14 03:30:15;;;;;;;866.75;781.13;;;;;;;;;;5008923;28;20057;-68
2023/08/14 03:32:42;;;;;;;853.08;770.50;;;;;;;;;;5008400;28;20056;-68
2023/08/14 03:35:09;;;;;;;866.83;781.92;;;;;;;;;;5007812;28;20446;-66
2023/08/14 03:37:36;;;;;;;855.20;770.65;;;;;;;;;;5007918;28;20042;-67
2023/08/14 03:40:03;;;;;;;863.67;779.30;;;;;;;;;;5007507;28;20061;-67
2023/08/14 03:42:31;;;;;;;867.28;781.42;;;;;;;;;;5007360;28;20074;-69
2023/08/14 03:44:57;;;;;;;864.13;780.03;;;;;;;;;;5008567;28;20057;-69
2023/08/14 03:47:24;;;;;;;859.47;775.55;;;;;;;;;;5008808;28;20463;-68
2023/08/14 03:49:50;;;;;;;864.17;779.58;;;;;;;;;;5008015;28;20116;-66
2023/08/14 03:52:17;;;;;;;873.15;788.30;;;;;;;;;;5007866;28;20054;-66
2023/08/14 03:54:45;;;;;;;864.80;779.50;;;;;;;;;;5008815;28;20135;-67
2023/08/14 03:57:11;;;;;;;876.42;791.45;;;;;;;;;;5009952;28;20046;-67
2023/08/14 03:59:38;;;;;;;871.35;785.47;;;;;;;;;;5007895;28;20525;-66
2023/08/14 04:02:04;;;;;;;880.67;795.25;;;;;;;;;;5003912;28;20050;-68
2023/08/14 04:04:31;;;;;;;882.00;799.15;;;;;;;;;;5004817;28;20430;-67
2023/08/14 04:06:59;;;;;;;870.35;785.58;;;;;;;;;;5007615;28;20046;-69
2023/08/14 04:09:27;;;;;;;882.47;795.00;;;;;;;;;;5008925;28;20045;-67
2023/08/14 04:11:53;;;;;;;869.30;785.95;;;;;;;;;;5008396;28;20045;-69
2023/08/14 04:14:20;;;;;;;864.90;782.28;;;;;;;;;;5008968;28;20124;-67
2023/08/14 04:16:46;;;;;;;883.75;797.40;;;;;;;;;;5006608;28;21245;-68
2023/08/14 04:19:14;;;;;;;881.45;794.70;;;;;;;;;;5008957;28;20046;-67
2023/08/14 04:21:42;;;;;;;889.08;799.80;;;;;;;;;;5008401;28;20050;-68
2023/08/14 04:24:08;;;;;;;877.75;791.63;;;;;;;;;;5009555;28;20131;-65
2023/08/14 04:26:36;;;;;;;866.08;784.65;;;;;;;;;;5008465;28;20752;-67
2023/08/14 04:29:06;;;;;;;873.30;787.78;;;;;;;;;;5009790;28;20041;-68
2023/08/14 04:31:36;;;;;;;875.92;789.67;;;;;;;;;;4990736;28;20388;-68
2023/08/14 04:34:04;;;;;;;867.33;782.30;;;;;;;;;;5006854;28;20395;-68
2023/08/14 04:36:34;;;;;;;902.90;813.58;;;;;;;;;;5007540;28;20115;-68
2023/08/14 04:39:03;;;;;;;886.65;800.47;;;;;;;;;;5008307;28;20096;-69
2023/08/14 04:41:30;;;;;;;875.00;791.95;;;;;;;;;;5006616;28;20078;-67
2023/08/14 04:43:56;;;;;;;899.35;812.53;;;;;;;;;;4974665;28;20049;-66
2023/08/14 04:46:30;;;;;;;890.20;805.75;;;;;;;;;;5004695;28;20038;-67
2023/08/14 04:49:07;;;;;;;909.08;822.85;;;;;;;;;;4989649;28;20045;-67
2023/08/14 04:51:34;;;;;;;919.38;828.20;;;;;;;;;;5011207;28;20052;-68
2023/08/14 04:54:01;;;;;;;910.72;825.25;;;;;;;;;;5013656;28;20053;-66
2023/08/14 04:56:30;;;;;;;908.25;820.80;;;;;;;;;;5011667;28;20041;-65
2023/08/14 04:58:57;;;;;;;901.63;816.58;;;;;;;;;;5007356;28;20100;-66
2023/08/14 05:01:24;;;;;;;908.60;824.20;;;;;;;;;;5010390;28;20128;-65
2023/08/14 05:03:54;;;;;;;932.42;843.92;;;;;;;;;;4991977;28;20052;-65
2023/08/14 05:06:21;;;;;;;933.50;846.10;;;;;;;;;;5024939;28;20042;-67
2023/08/14 05:08:48;;;;;;;936.42;849.30;;;;;;;;;;5011300;28;20052;-67
2023/08/14 05:11:14;;;;;;;949.15;858.95;;;;;;;;;;5009836;28;20073;-66
2023/08/14 05:13:44;;;;;;;943.08;854.70;;;;;;;;;;5010843;28;20046;-67
2023/08/14 05:16:11;;;;;;;948.17;859.17;;;;;;;;;;5010961;28;20045;-66
2023/08/14 05:18:38;;;;;;;970.30;876.92;;;;;;;;;;5010939;28;20085;-65
2023/08/14 05:21:05;;;;;;;963.05;874.42;;;;;;;;;;5007745;28;20487;-65
2023/08/14 05:23:31;;;;;;;984.60;895.15;;;;;;;;;;5011886;28;20076;-65
2023/08/14 05:25:58;;;;;;;1006.30;915.55;;;;;;;;;;5011507;28;20040;-65
2023/08/14 05:28:24;;;;;;;1032.70;941.10;;;;;;;;;;5012346;28;20034;-66
2023/08/14 05:30:51;;;;;;;1064.45;969.22;;;;;;;;;;5011986;28;20116;-68
2023/08/14 05:33:18;;;;;;;1084.95;988.58;;;;;;;;;;5012924;28;20073;-65
2023/08/14 05:35:46;;;;;;;1079.55;985.03;;;;;;;;;;5012544;28;20046;-67
2023/08/14 05:38:12;;;;;;;1354.82;967.17;;;;;;;;;;5012208;28;20092;-67
2023/08/14 05:40:39;;;;;;;1077.32;982.50;;;;;;;;;;5011521;28;20037;-65
2023/08/14 05:43:06;;;;;;;1087.38;991.22;;;;;;;;;;5011298;28;20574;-64
2023/08/14 05:45:34;;;;;;;1087.82;988.60;;;;;;;;;;5011591;28;20037;-67
2023/08/14 05:48:01;;;;;;;1078.90;981.80;;;;;;;;;;5011715;28;20042;-69
2023/08/14 05:50:28;;;;;;;1075.60;980.30;;;;;;;;;;5009228;28;20038;-67
2023/08/14 05:52:56;;;;;;;1070.20;976.97;;;;;;;;;;5006213;28;20091;-67
2023/08/14 05:55:23;;;;;;;1086.15;989.83;;;;;;;;;;5009244;28;20042;-66
2023/08/14 05:57:50;;;;;;;1082.32;987.13;;;;;;;;;;5008810;28;20044;-67
2023/08/14 06:00:17;;;;;;;1097.18;998.88;;;;;;;;;;5009830;28;20136;-66
2023/08/14 06:02:44;;;;;;;1105.47;999.90;;;;;;;;;;5007242;28;20113;-67
2023/08/14 06:05:11;;;;;;;1105.25;999.90;;;;;;;;;;5008974;28;20049;-68
2023/08/14 06:07:38;;;;;;;1106.63;999.90;;;;;;;;;;4993426;28;20482;-65
2023/08/14 06:10:05;;;;;;;1093.50;995.25;;;;;;;;;;5010595;28;20041;-72
2023/08/14 06:12:32;;;;;;;1082.18;984.35;;;;;;;;;;5009676;28;20042;-67
2023/08/14 06:14:58;;;;;;;1078.70;984.25;;;;;;;;;;5005269;28;20092;-79
2023/08/14 06:17:26;;;;;;;1064.13;970.70;;;;;;;;;;5001480;28;20399;-71
2023/08/14 06:19:52;;;;;;;1071.05;973.95;;;;;;;;;;5017087;28;20030;-74
2023/08/14 06:22:19;;;;;;;1061.13;965.72;;;;;;;;;;5009847;28;20049;-67
2023/08/14 06:24:46;;;;;;;1060.30;963.53;;;;;;;;;;5009083;28;20050;-69
2023/08/14 06:27:13;;;;;;;1063.85;966.80;;;;;;;;;;5010252;28;20064;-69
2023/08/14 06:29:39;;;;;;;1060.28;965.63;;;;;;;;;;5009078;28;20033;-67
2023/08/14 06:32:06;;;;;;;1064.78;969.38;;;;;;;;;;5009008;28;20120;-68
2023/08/14 06:34:32;;;;;;;1086.20;989.10;;;;;;;;;;5009330;28;20621;-68
2023/08/14 06:36:59;;;;;;;1100.97;999.00;;;;;;;;;;5009408;28;20041;-65
2023/08/14 06:39:26;;;;;;;1125.03;999.90;;;;;;;;;;5010444;28;20549;-71
2023/08/14 06:41:52;;;;;;;1117.88;999.90;;;;;;;;;;5010393;28;20379;-68
2023/08/14 06:44:19;;;;;;;1127.90;999.90;;;;;;;;;;5008360;28;20415;-66
2023/08/14 06:46:46;;;;;;;1130.32;999.90;;;;;;;;;;5010127;28;20040;-67
2023/08/14 06:49:12;;;;;;;1160.40;999.90;;;;;;;;;;5006935;28;20043;-66
2023/08/14 06:51:40;;;;;;;1160.30;999.90;;;;;;;;;;5008717;28;20096;-66
2023/08/14 06:54:07;;;;;;;1163.30;999.90;;;;;;;;;;5010504;28;20038;-65
2023/08/14 06:56:33;;;;;;;1174.07;999.90;;;;;;;;;;5009969;28;20459;-65
2023/08/14 06:59:00;;;;;;;1183.53;999.90;;;;;;;;;;5010136;28;20037;-65
2023/08/14 07:01:27;;;;;;;1189.93;999.90;;;;;;;;;;5007923;28;20077;-65
2023/08/14 07:03:53;;;;;;;1191.03;999.90;;;;;;;;;;5007958;28;20098;-66
2023/08/14 07:06:20;;;;;;;1190.82;999.90;;;;;;;;;;5011030;28;20038;-66
2023/08/14 07:08:46;;;;;;;1186.22;999.90;;;;;;;;;;5010227;28;20056;-64
2023/08/14 07:11:13;;;;;;;1196.50;999.90;;;;;;;;;;5008672;28;20172;-66
2023/08/14 07:13:39;;;;;;;1202.15;999.90;;;;;;;;;;5008732;28;20046;-65
2023/08/14 07:16:07;;;;;;;1188.40;999.90;;;;;;;;;;5009064;28;20386;-65
2023/08/14 07:18:34;;;;;;;1182.07;999.90;;;;;;;;;;5008473;28;20034;-64
2023/08/14 07:21:00;;;;;;;1172.93;999.90;;;;;;;;;;5010651;28;20053;-65
2023/08/14 07:23:27;;;;;;;1163.60;999.90;;;;;;;;;;5009793;28;20125;-64
2023/08/14 07:25:57;;;;;;;1173.25;999.90;;;;;;;;;;5004934;28;20034;-65
2023/08/14 07:28:23;;;;;;;1164.13;999.90;;;;;;;;;;4986037;28;20554;-65
2023/08/14 07:30:50;;;;;;;1157.68;999.90;;;;;;;;;;5009808;28;20519;-66
2023/08/14 07:33:16;;;;;;;1162.28;999.90;;;;;;;;;;5010720;28;20046;-65
2023/08/14 07:35:43;;;;;;;1146.43;999.90;;;;;;;;;;5009305;28;20120;-65
2023/08/14 07:38:12;;;;;;;1153.07;999.90;;;;;;;;;;5009213;28;20034;-67
2023/08/14 07:40:38;;;;;;;1161.35;999.90;;;;;;;;;;5005446;28;20049;-66
2023/08/14 07:43:05;;;;;;;1161.45;999.90;;;;;;;;;;5009010;28;20054;-65
2023/08/14 07:45:34;;;;;;;1172.25;999.90;;;;;;;;;;5008920;28;20042;-67
2023/08/14 07:48:01;;;;;;;1170.70;999.90;;;;;;;;;;5009569;28;20044;-65
2023/08/14 07:50:27;;;;;;;1167.60;999.90;;;;;;;;;;5009604;28;20128;-67
2023/08/14 07:52:54;;;;;;;1167.68;999.90;;;;;;;;;;5009171;28;20030;-65
2023/08/14 07:55:21;;;;;;;1169.85;999.90;;;;;;;;;;5006880;28;20084;-67
2023/08/14 07:57:47;;;;;;;1159.63;999.90;;;;;;;;;;5009113;28;20049;-67
2023/08/14 08:00:14;;;;;;;1151.75;999.90;;;;;;;;;;5010008;28;20038;-65
2023/08/14 08:02:40;;;;;;;1150.30;999.90;;;;;;;;;;5008798;28;20049;-69
2023/08/14 08:05:07;;;;;;;1138.63;999.90;;;;;;;;;;5008846;28;20120;-66
2023/08/14 08:07:34;;;;;;;1138.47;999.90;;;;;;;;;;5008596;28;20408;-64
2023/08/14 08:10:01;;;;;;;1150.47;999.90;;;;;;;;;;5006472;28;20045;-68
2023/08/14 08:12:28;;;;;;;1140.72;999.90;;;;;;;;;;5009439;28;20683;-72
2023/08/14 08:14:55;;;;;;;1134.88;999.90;;;;;;;;;;5008170;28;20424;-65
2023/08/14 08:17:21;;;;;;;1152.70;999.90;;;;;;;;;;5007477;28;20077;-68
2023/08/14 08:19:48;;;;;;;1150.57;999.90;;;;;;;;;;5006870;28;20498;-67
2023/08/14 08:22:15;;;;;;;1151.53;999.90;;;;;;;;;;5007940;28;20033;-65
2023/08/14 08:24:42;;;;;;;1155.57;999.90;;;;;;;;;;5005290;28;20060;-69
2023/08/14 08:27:08;;;;;;;1148.32;999.90;;;;;;;;;;4987161;28;20503;-67
2023/08/14 08:29:35;;;;;;;1152.18;999.90;;;;;;;;;;5008641;28;20064;-65
2023/08/14 08:32:01;;;;;;;1153.82;999.90;;;;;;;;;;5007921;28;20077;-68
2023/08/14 08:34:28;;;;;;;1173.80;999.90;;;;;;;;;;5000794;28;20076;-68
2023/08/14 08:36:58;;;;;;;1193.50;999.90;;;;;;;;;;5006290;28;20050;-66
2023/08/14 08:39:25;;;;;;;1174.18;999.90;;;;;;;;;;5003910;28;20051;-67
2023/08/14 08:41:52;;;;;;;1159.00;999.90;;;;;;;;;;5004586;28;20042;-66
2023/08/14 08:44:25;;;;;;;1156.25;999.90;;;;;;;;;;5003571;28;20360;-67
2023/08/14 08:46:54;;;;;;;1153.88;999.90;;;;;;;;;;5003112;28;20482;-72
2023/08/14 08:49:20;;;;;;;1146.88;999.90;;;;;;;;;;5000788;28;20430;-65
2023/08/14 08:51:47;;;;;;;1153.25;999.90;;;;;;;;;;5007722;28;20099;-66
2023/08/14 08:54:15;;;;;;;1157.93;999.90;;;;;;;;;;5005537;28;20038;-68
2023/08/14 08:56:42;;;;;;;1160.65;999.90;;;;;;;;;;4998294;28;20052;-68
2023/08/14 08:59:09;;;;;;;1163.90;999.90;;;;;;;;;;5004090;28;20038;-62
2023/08/14 09:01:35;;;;;;;1162.22;999.90;;;;;;;;;;5000449;28;20065;-67
2023/08/14 09:04:02;;;;;;;1163.25;999.90;;;;;;;;;;5006446;28;21007;-65
2023/08/14 09:06:30;;;;;;;1167.88;999.90;;;;;;;;;;5004095;28;20041;-69
2023/08/14 09:08:56;;;;;;;1157.40;999.90;;;;;;;;;;5006691;28;20034;-68
2023/08/14 09:11:24;;;;;;;1164.65;999.90;;;;;;;;;;5007761;28;20430;-67
2023/08/14 09:13:50;;;;;;;1164.65;999.90;;;;;;;;;;5002813;28;20391;-64
2023/08/14 09:16:17;;;;;;;1173.47;999.90;;;;;;;;;;5007699;28;20402;-64
2023/08/14 09:18:44;;;;;;;1172.07;999.90;;;;;;;;;;5008013;28;20044;-65
2023/08/14 09:21:11;;;;;;;1180.60;999.90;;;;;;;;;;5004152;28;20046;-68
2023/08/14 09:23:39;;;;;;;1182.25;999.90;;;;;;;;;;5007245;28;20045;-65
2023/08/14 09:26:06;;;;;;;1180.05;999.90;;;;;;;;;;5006811;28;20065;-64
2023/08/14 09:28:32;;;;;;;1177.90;999.90;;;;;;;;;;4990475;28;20117;-66
2023/08/14 09:31:09;;;;;;;1184.72;999.90;;;;;;;;;;5007042;28;20452;-66
2023/08/14 09:33:40;;;;;;;1181.53;999.90;;;;;;;;;;4985748;28;20132;-61
2023/08/14 09:36:07;;;;;;;1183.35;999.90;;;;;;;;;;5009258;28;20045;-67
2023/08/14 09:38:34;;;;;;;1187.15;999.90;;;;;;;;;;5010994;28;20069;-66
2023/08/14 09:41:01;;;;;;;1185.05;999.90;;;;;;;;;;4992498;28;20052;-67
2023/08/14 09:43:31;;;;;;;1182.68;999.90;;;;;;;;;;5011412;28;20034;-71
2023/08/14 09:45:59;;;;;;;1192.38;999.90;;;;;;;;;;4992274;28;20096;-66
2023/08/14 09:48:39;;;;;;;1189.55;999.90;;;;;;;;;;5009780;28;20621;-68
2023/08/14 09:51:09;;;;;;;1198.57;999.90;;;;;;;;;;4991911;28;20048;-66
2023/08/14 09:53:49;;;;;;;1192.68;999.90;;;;;;;;;;5002478;28;20127;-66
2023/08/14 09:56:17;;;;;;;1189.47;999.90;;;;;;;;;;5005449;28;20049;-67
2023/08/14 09:58:44;;;;;;;1197.50;999.90;;;;;;;;;;5009362;28;20096;-66
2023/08/14 10:01:11;;;;;;;1195.75;999.90;;;;;;;;;;5009816;28;20034;-66
2023/08/14 10:03:39;;;;;;;1200.25;999.90;;;;;;;;;;4999112;28;20046;-66
2023/08/14 10:06:07;;;;;;;1189.15;999.90;;;;;;;;;;5011397;28;20040;-66
2023/08/14 10:08:39;;;;;;;1185.30;999.90;;;;;;;;;;5010613;28;20100;-68
2023/08/14 10:11:06;;;;;;;1196.45;999.90;;;;;;;;;;5010351;28;20038;-67
2023/08/14 10:13:46;;;;;;;1198.68;999.90;;;;;;;;;;5006846;28;20033;-68
2023/08/14 10:16:14;;;;;;;1195.88;999.90;;;;;;;;;;5010382;28;20038;-67
2023/08/14 10:18:41;;;;;;;1190.20;999.90;;;;;;;;;;5010947;28;20048;-66
2023/08/14 10:21:10;;;;;;;1185.90;999.90;;;;;;;;;;5010413;28;20046;-65
2023/08/14 10:23:37;;;;;;;1191.57;999.90;;;;;;;;;;5009087;28;20734;-68
2023/08/14 10:26:05;;;;;;;1183.72;999.90;;;;;;;;;;5009446;28;20112;-66
2023/08/14 10:28:32;;;;;;;1184.15;999.90;;;;;;;;;;5008716;28;20064;-69
2023/08/14 10:30:59;;;;;;;1187.75;999.90;;;;;;;;;;5007790;28;20367;-66
2023/08/14 10:33:26;;;;;;;1198.97;999.90;;;;;;;;;;5011347;28;20044;-65
2023/08/14 10:35:54;;;;;;;1181.78;999.90;;;;;;;;;;5009956;28;20046;-67
2023/08/14 10:38:21;;;;;;;1199.40;999.90;;;;;;;;;;5010478;28;20049;-65
2023/08/14 10:40:55;;;;;;;1186.20;999.90;;;;;;;;;;5009170;28;20045;-70
2023/08/14 10:43:26;;;;;;;1181.75;999.90;;;;;;;;;;5009154;28;20038;-66
2023/08/14 10:45:53;;;;;;;1186.72;999.90;;;;;;;;;;5010262;28;20050;-66
2023/08/14 10:48:20;;;;;;;1187.57;999.90;;;;;;;;;;5010140;28;20095;-66
2023/08/14 10:51:02;;;;;;;1194.57;999.90;;;;;;;;;;5008198;28;20076;-66
2023/08/14 10:53:29;;;;;;;1189.93;999.90;;;;;;;;;;5010134;28;20505;-68
2023/08/14 10:55:57;;;;;;;1181.28;999.90;;;;;;;;;;5010080;28;20506;-65
2023/08/14 10:58:35;;;;;;;1197.13;999.90;;;;;;;;;;5009907;28;20053;-68
2023/08/14 11:01:01;;;;;;;1201.00;999.90;;;;;;;;;;5007417;28;20473;-67
2023/08/14 11:03:28;;;;;;;1195.10;999.90;;;;;;;;;;5006076;28;20057;-67
2023/08/14 11:05:55;;;;;;;1203.18;999.90;;;;;;;;;;5009885;28;20042;-66
2023/08/14 11:08:21;;;;;;;1198.43;999.90;;;;;;;;;;5009762;28;20152;-68
2023/08/14 11:10:49;;;;;;;1201.97;999.90;;;;;;;;;;5008239;28;20045;-65
2023/08/14 11:13:16;;;;;;;1201.68;999.90;;;;;;;;;;5009502;28;20044;-66
2023/08/14 11:15:42;;;;;;;1209.72;999.90;;;;;;;;;;5009915;28;20054;-68
2023/08/14 11:18:10;;;;;;;1196.45;999.90;;;;;;;;;;5010022;28;20049;-66
2023/08/14 11:20:43;;;;;;;1201.72;999.90;;;;;;;;;;5008818;28;20044;-66
2023/08/14 11:23:12;;;;;;;1195.53;999.90;;;;;;;;;;5008806;28;20042;-67
2023/08/14 11:25:38;;;;;;;1197.28;999.90;;;;;;;;;;5008171;28;20037;-66
2023/08/14 11:28:05;;;;;;;1198.03;999.90;;;;;;;;;;5009467;28;20042;-67
2023/08/14 11:30:35;;;;;;;1185.43;999.90;;;;;;;;;;5009743;28;20042;-69
2023/08/14 11:33:04;;;;;;;1194.20;999.90;;;;;;;;;;5008877;28;20034;-67
2023/08/14 11:35:31;;;;;;;1189.72;999.90;;;;;;;;;;4987932;28;20043;-67
2023/08/14 11:37:57;;;;;;;1186.32;999.90;;;;;;;;;;5009242;28;20038;-67
2023/08/14 11:40:24;;;;;;;1186.38;999.90;;;;;;;;;;5008646;28;20040;-66
2023/08/14 11:42:51;;;;;;;1201.35;999.90;;;;;;;;;;5009115;28;20046;-67
2023/08/14 11:45:17;;;;;;;1198.18;999.90;;;;;;;;;;5010048;28;20042;-66
2023/08/14 11:47:47;;;;;;;1195.03;999.90;;;;;;;;;;5008551;28;20030;-66
2023/08/14 11:50:15;;;;;;;1198.72;999.90;;;;;;;;;;5009269;28;20050;-66
2023/08/14 11:52:44;;;;;;;1196.88;999.90;;;;;;;;;;5008697;28;20037;-66
2023/08/14 11:55:11;;;;;;;1205.55;999.90;;;;;;;;;;5008252;28;20117;-67
2023/08/14 11:57:38;;;;;;;1196.82;999.90;;;;;;;;;;5008919;28;20045;-67
2023/08/14 12:00:10;;;;;;;1200.93;999.90;;;;;;;;;;5008942;28;20045;-65
2023/08/14 12:02:38;;;;;;;1201.30;999.90;;;;;;;;;;5008240;28;20061;-67
2023/08/14 12:05:05;;;;;;;1210.07;999.90;;;;;;;;;;5008499;28;20046;-65
2023/08/14 12:07:32;;;;;;;1201.25;999.90;;;;;;;;;;5008442;28;20030;-67
2023/08/14 12:09:59;;;;;;;1206.95;999.90;;;;;;;;;;5008117;28;20120;-66
2023/08/14 12:12:26;;;;;;;1204.45;999.90;;;;;;;;;;4992198;28;20049;-66
2023/08/14 12:14:53;;;;;;;1197.30;999.90;;;;;;;;;;5008398;28;20136;-65
2023/08/14 12:17:20;;;;;;;1212.38;999.90;;;;;;;;;;5000925;28;20069;-67
2023/08/14 12:19:48;;;;;;;1206.65;999.90;;;;;;;;;;5005402;28;20038;-66
2023/08/14 12:22:14;;;;;;;1206.88;999.90;;;;;;;;;;4985171;28;20041;-67
2023/08/14 12:24:43;;;;;;;1211.07;999.90;;;;;;;;;;4999642;28;20037;-65
2023/08/14 12:27:19;;;;;;;1201.78;999.90;;;;;;;;;;4986595;28;20435;-64
2023/08/14 12:29:47;;;;;;;1204.18;999.90;;;;;;;;;;4998858;28;20030;-72
2023/08/14 12:32:15;;;;;;;1197.78;999.90;;;;;;;;;;5000613;28;20552;-65
2023/08/14 12:34:41;;;;;;;1202.53;999.90;;;;;;;;;;5002457;28;20030;-65
2023/08/14 12:37:12;;;;;;;1219.20;999.90;;;;;;;;;;4998891;28;20487;-65
2023/08/14 12:39:39;;;;;;;1213.43;999.90;;;;;;;;;;5002735;28;21348;-66
2023/08/14 12:42:06;;;;;;;1202.95;999.90;;;;;;;;;;5005931;28;20045;-65
2023/08/14 12:44:33;;;;;;;1199.38;999.90;;;;;;;;;;4999013;28;20479;-66
2023/08/14 12:46:59;;;;;;;1198.57;999.90;;;;;;;;;;5008404;28;20092;-66
2023/08/14 12:49:26;;;;;;;1193.35;999.90;;;;;;;;;;5007573;28;20042;-65
2023/08/14 12:51:53;;;;;;;1202.70;999.90;;;;;;;;;;5008314;28;20108;-66
2023/08/14 12:54:20;;;;;;;1210.07;999.90;;;;;;;;;;5007682;28;20046;-65
2023/08/14 12:56:47;;;;;;;1202.97;999.90;;;;;;;;;;4990957;28;20042;-65
2023/08/14 12:59:13;;;;;;;1205.78;999.90;;;;;;;;;;5007826;28;20132;-66
2023/08/14 13:01:40;;;;;;;1199.05;999.90;;;;;;;;;;5008080;28;20041;-66
2023/08/14 13:04:13;;;;;;;1203.05;999.90;;;;;;;;;;5004738;28;20121;-66
2023/08/14 13:06:40;;;;;;;1214.40;999.90;;;;;;;;;;5008576;28;20092;-68
2023/08/14 13:09:06;;;;;;;1203.65;999.90;;;;;;;;;;5009123;28;20042;-66
2023/08/14 13:11:33;;;;;;;1200.32;999.90;;;;;;;;;;5011219;28;20111;-65
2023/08/14 13:14:00;;;;;;;1204.07;999.90;;;;;;;;;;5011944;28;20535;-65
2023/08/14 13:16:26;;;;;;;1196.25;999.90;;;;;;;;;;5012401;28;20038;-63
2023/08/14 13:18:53;;;;;;;1194.85;999.90;;;;;;;;;;5011917;28;20442;-64
2023/08/14 13:21:19;;;;;;;1204.47;999.90;;;;;;;;;;5012224;28;20054;-67
2023/08/14 13:23:46;;;;;;;1195.55;999.90;;;;;;;;;;5003587;28;20045;-68
2023/08/14 13:26:18;;;;;;;1192.15;999.90;;;;;;;;;;5005278;28;20097;-63
2023/08/14 13:28:53;;;;;;;1197.55;999.90;;;;;;;;;;5008241;28;20034;-64
2023/08/14 13:31:19;;;;;;;1203.60;999.90;;;;;;;;;;5011760;28;20481;-63
2023/08/14 13:33:46;;;;;;;1201.60;999.90;;;;;;;;;;5012104;28;20037;-63
2023/08/14 13:36:13;;;;;;;1203.35;999.90;;;;;;;;;;5010382;28;20121;-63
2023/08/14 13:38:39;;;;;;;1199.05;999.90;;;;;;;;;;5009326;28;20140;-64
2023/08/14 13:41:07;;;;;;;1194.03;999.90;;;;;;;;;;5004680;28;20669;-63
2023/08/14 13:43:34;;;;;;;1191.97;999.90;;;;;;;;;;5007196;28;20038;-64
2023/08/14 13:46:01;;;;;;;1198.40;999.90;;;;;;;;;;5003688;28;20120;-63